createdAt,value
2023-08-11T00:00:56.349Z,101816.56
2023-08-11T00:06:00.567Z,101814.34
2023-08-11T00:11:02.744Z,101813.75
2023-08-11T00:16:09.818Z,101816.31
2023-08-11T00:21:20.747Z,101814.53
2023-08-11T00:26:33.872Z,101811.03
2023-08-11T00:31:37.083Z,101805.31
2023-08-11T00:36:43.424Z,101813.91
2023-08-11T00:41:54.521Z,101802.47
2023-08-11T00:47:00.514Z,101803.16
2023-08-11T00:52:07.603Z,101794.31
2023-08-11T00:57:12.345Z,101794.16
2023-08-11T01:02:15.584Z,101796.50
2023-08-11T01:07:35.163Z,101794.72
2023-08-11T01:12:53.820Z,101787.19
2023-08-11T01:21:12.971Z,101790.66
2023-08-11T01:26:18.294Z,101780.66
2023-08-11T01:31:20.512Z,101777.50
2023-08-11T01:36:24.370Z,101775.88
2023-08-11T01:41:30.607Z,101772.28
2023-08-11T01:46:39.344Z,101777.50
2023-08-11T01:51:44.724Z,101781.00
2023-08-11T01:56:49.396Z,101775.41
2023-08-11T02:01:51.643Z,101777.72
2023-08-11T02:06:58.608Z,101779.56
2023-08-11T02:12:03.361Z,101780.03
2023-08-11T02:17:18.866Z,101780.72
2023-08-11T02:22:21.058Z,101779.75
2023-08-11T02:27:23.289Z,101785.88
2023-08-11T02:32:27.512Z,101780.16
2023-08-11T02:37:31.981Z,101779.69
2023-08-11T02:42:39.800Z,101777.59
2023-08-11T02:47:44.099Z,101785.47
2023-08-11T02:52:47.621Z,101769.41
2023-08-11T02:57:49.709Z,101773.38
2023-08-11T03:02:51.901Z,101768.25
2023-08-11T03:07:56.901Z,101768.94
2023-08-11T03:13:01.047Z,101761.13
2023-08-11T03:18:04.335Z,101762.31
2023-08-11T03:23:06.799Z,101762.03
2023-08-11T03:28:17.675Z,101771.28
2023-08-11T03:33:21.813Z,101769.50
2023-08-11T03:38:39.253Z,101763.81
2023-08-11T03:43:43.571Z,101771.22
2023-08-11T03:48:51.042Z,101773.84
2023-08-11T03:53:59.705Z,101771.06
2023-08-11T03:59:05.964Z,101773.03
2023-08-11T04:04:11.169Z,101776.16
2023-08-11T04:09:18.330Z,101767.66
2023-08-11T04:14:26.595Z,101769.63
2023-08-11T04:19:32.950Z,101779.94
2023-08-11T04:24:36.827Z,101783.41
2023-08-11T04:29:39.320Z,101784.44
2023-08-11T04:34:42.624Z,101787.50
2023-08-11T04:41:19.563Z,101789.34
2023-08-11T04:46:21.911Z,101796.72
2023-08-11T04:51:24.200Z,101802.81
2023-08-11T04:56:26.395Z,101794.28
2023-08-11T05:01:28.603Z,101795.44
2023-08-11T05:06:30.947Z,101804.28
2023-08-11T05:11:33.079Z,101804.47
2023-08-11T05:16:35.483Z,101804.13
2023-08-11T05:21:40.725Z,101798.38
2023-08-11T05:26:43.487Z,101808.84
2023-08-11T05:31:45.889Z,101812.78
2023-08-11T05:36:47.956Z,101807.22
2023-08-11T05:42:27.627Z,101816.88
2023-08-11T05:51:19.624Z,101821.28
2023-08-11T05:56:21.969Z,101818.66
2023-08-11T06:11:18.264Z,101831.69
2023-08-11T06:16:20.258Z,101833.13
2023-08-11T06:21:22.561Z,101853.28
2023-08-11T06:26:24.611Z,101851.25
2023-08-11T06:31:26.871Z,101859.56
2023-08-11T06:36:31.139Z,101860.84
2023-08-11T06:41:34.965Z,101862.91
2023-08-11T06:46:38.121Z,101859.50
2023-08-11T06:51:40.333Z,101860.34
2023-08-11T06:56:42.417Z,101857.34
2023-08-11T07:01:44.578Z,101865.69
2023-08-11T07:06:47.299Z,101867.69
2023-08-11T07:11:49.755Z,101865.22
2023-08-11T07:16:55.192Z,101875.28
2023-08-11T07:21:57.486Z,101871.09
2023-08-11T07:26:59.744Z,101868.91
2023-08-11T07:32:04.446Z,101871.31
2023-08-11T07:37:09.904Z,101871.28
2023-08-11T07:42:14.964Z,101867.13
2023-08-11T07:47:17.064Z,101872.19
2023-08-11T07:52:19.188Z,101876.38
2023-08-11T07:57:21.292Z,101872.56
2023-08-11T08:02:23.556Z,101871.19
2023-08-11T08:07:25.655Z,101872.16
2023-08-11T08:12:27.754Z,101880.38
2023-08-11T08:17:36.395Z,101881.81
2023-08-11T08:22:39.123Z,101887.69
2023-08-11T08:27:41.914Z,101883.84
2023-08-11T08:32:44.380Z,101884.06
2023-08-11T08:37:46.618Z,101887.13
2023-08-11T08:42:53.079Z,101885.78
2023-08-11T08:47:58.552Z,101886.03
2023-08-11T08:53:05.133Z,101892.66
2023-08-11T08:58:10.420Z,101888.75
2023-08-11T09:03:14.533Z,101882.38
2023-08-11T09:08:21.598Z,101888.81
2023-08-11T09:13:27.403Z,101881.28
2023-08-11T09:18:30.650Z,101881.88
2023-08-11T09:23:33.941Z,101871.09
2023-08-11T09:28:38.576Z,101882.66
2023-08-11T09:33:40.653Z,101874.56
2023-08-11T09:38:50.168Z,101873.16
2023-08-11T09:43:57.219Z,101868.34
2023-08-11T09:49:02.312Z,101866.09
2023-08-11T09:54:08.127Z,101870.16
2023-08-11T09:59:20.493Z,101883.03
2023-08-11T10:04:37.424Z,101871.66
2023-08-11T10:09:40.593Z,101876.00
2023-08-11T10:14:43.988Z,101873.13
2023-08-11T10:19:46.466Z,101878.16
2023-08-11T10:24:51.326Z,101880.00
2023-08-11T10:29:55.213Z,101872.91
2023-08-11T10:34:58.121Z,101863.66
2023-08-11T10:40:08.557Z,101862.72
2023-08-11T10:45:15.391Z,101861.84
2023-08-11T10:50:19.407Z,101855.50
2023-08-11T10:55:22.465Z,101846.53
2023-08-11T11:00:24.753Z,101847.81
2023-08-11T11:05:27.416Z,101841.50
2023-08-11T11:10:43.451Z,101844.66
2023-08-11T11:15:51.170Z,101839.16
2023-08-11T11:20:54.503Z,101835.28
2023-08-11T11:25:56.630Z,101827.22
2023-08-11T11:30:58.904Z,101823.09
2023-08-11T11:36:01.103Z,101825.31
2023-08-11T11:41:03.540Z,101831.72
2023-08-11T11:46:15.714Z,101825.47
2023-08-11T11:51:25.861Z,101830.75
2023-08-11T11:56:31.850Z,101820.41
2023-08-11T12:01:36.493Z,101812.97
2023-08-11T12:06:38.532Z,101803.16
2023-08-11T12:11:40.759Z,101796.31
2023-08-11T12:16:45.453Z,101810.84
2023-08-11T12:21:53.298Z,101786.75
2023-08-11T12:26:56.493Z,101796.44
2023-08-11T12:31:59.100Z,101789.06
2023-08-11T12:37:01.215Z,101797.94
2023-08-11T12:42:03.669Z,101780.94
2023-08-11T12:47:06.831Z,101804.44
2023-08-11T12:52:09.324Z,101789.53
2023-08-11T12:57:11.650Z,101781.72
2023-08-11T13:02:15.239Z,101769.59
2023-08-11T13:07:19.118Z,101772.41
2023-08-11T13:12:21.408Z,101763.53
2023-08-11T13:17:23.812Z,101766.03
2023-08-11T13:22:26.237Z,101771.84
2023-08-11T13:27:33.360Z,101766.00
2023-08-11T13:32:35.631Z,101766.88
2023-08-11T13:37:38.244Z,101769.06
2023-08-11T13:42:43.112Z,101768.31
2023-08-11T13:47:45.795Z,101763.50
2023-08-11T13:52:47.971Z,101761.75
2023-08-11T13:57:50.264Z,101764.19
2023-08-11T14:02:52.311Z,101769.69
2023-08-11T14:07:54.326Z,101762.72
2023-08-11T14:12:56.470Z,101756.44
2023-08-11T14:17:58.566Z,101751.56
2023-08-11T14:23:00.732Z,101758.63
2023-08-11T14:28:04.056Z,101752.06
2023-08-11T14:33:06.438Z,101741.94
2023-08-11T14:38:08.589Z,101744.47
2023-08-11T14:43:12.592Z,101754.19
2023-08-11T14:48:16.875Z,101752.88
2023-08-11T14:53:22.590Z,101736.34
2023-08-11T14:58:24.670Z,101735.16
2023-08-11T15:03:31.866Z,101742.09
2023-08-11T15:08:35.485Z,101752.13
2023-08-11T15:13:38.196Z,101754.81
2023-08-11T15:18:41.856Z,101752.75
2023-08-11T15:23:43.938Z,101746.69
2023-08-11T15:28:46.236Z,101749.94
2023-08-11T15:33:48.391Z,101758.06
2023-08-11T15:38:54.411Z,101763.38
2023-08-11T15:43:56.500Z,101762.72
2023-08-11T15:48:58.949Z,101766.47
2023-08-11T15:54:01.309Z,101755.44
2023-08-11T15:59:06.912Z,101762.56
2023-08-11T16:04:09.890Z,101760.13
2023-08-11T16:09:14.486Z,101767.66
2023-08-11T16:14:19.409Z,101758.00
2023-08-11T16:19:25.159Z,101755.84
2023-08-11T16:24:27.364Z,101755.94
2023-08-11T16:29:29.901Z,101749.56
2023-08-11T16:34:34.533Z,101741.50
2023-08-11T16:39:36.667Z,101744.63
2023-08-11T16:44:39.771Z,101748.47
2023-08-11T16:49:42.023Z,101748.41
2023-08-11T16:54:49.993Z,101757.91
2023-08-11T16:59:53.052Z,101754.53
2023-08-11T17:04:55.194Z,101759.09
2023-08-11T17:10:01.863Z,101752.75
2023-08-11T17:15:04.720Z,101750.38
2023-08-11T17:20:11.586Z,101767.44
2023-08-11T17:25:16.444Z,101752.75
2023-08-11T17:30:18.958Z,101754.06
2023-08-11T17:35:22.008Z,101759.44
2023-08-11T17:40:24.154Z,101756.94
2023-08-11T17:45:26.552Z,101764.09
2023-08-11T17:50:35.082Z,101764.16
2023-08-11T17:55:37.346Z,101765.91
2023-08-11T18:00:50.350Z,101758.78
2023-08-11T18:05:53.309Z,101767.13
2023-08-11T18:10:56.096Z,101769.56
2023-08-11T18:15:58.177Z,101764.03
2023-08-11T18:21:02.404Z,101773.53
2023-08-11T18:26:10.365Z,101775.81
2023-08-11T18:31:13.138Z,101781.97
2023-08-11T18:36:18.074Z,101783.78
2023-08-11T18:41:21.488Z,101779.94
2023-08-11T18:46:23.602Z,101780.56
2023-08-11T18:51:26.105Z,101794.03
2023-08-11T18:56:28.364Z,101796.97
2023-08-11T19:01:30.454Z,101803.28
2023-08-11T19:06:34.022Z,101811.06
2023-08-11T19:11:36.383Z,101818.00
2023-08-11T19:16:40.913Z,101817.78
2023-08-11T19:21:45.150Z,101819.09
2023-08-11T19:26:47.337Z,101824.38
2023-08-11T19:31:49.804Z,101826.59
2023-08-11T19:36:52.010Z,101824.41
2023-08-11T19:41:54.079Z,101829.34
2023-08-11T19:46:56.346Z,101835.75
2023-08-11T19:51:58.656Z,101840.41
2023-08-11T19:57:08.245Z,101845.91
2023-08-11T20:02:12.270Z,101852.53
2023-08-11T20:07:14.493Z,101853.25
2023-08-11T20:12:16.698Z,101846.72
2023-08-11T20:17:18.953Z,101850.34
2023-08-11T20:22:21.198Z,101858.47
2023-08-11T20:27:23.421Z,101857.91
2023-08-11T20:32:25.778Z,101863.63
2023-08-11T20:37:28.080Z,101858.94
2023-08-11T20:42:30.235Z,101860.69
2023-08-11T20:47:32.651Z,101853.69
2023-08-11T20:52:34.844Z,101845.84
2023-08-11T20:57:36.889Z,101840.34
2023-08-11T21:02:39.034Z,101841.63
2023-08-11T21:07:48.593Z,101839.63
2023-08-11T21:12:50.722Z,101844.44
2023-08-11T21:17:54.258Z,101841.88
2023-08-11T21:22:56.501Z,101845.84
2023-08-11T21:27:58.804Z,101849.47
2023-08-11T21:33:01.246Z,101847.47
2023-08-11T21:38:04.022Z,101833.38
2023-08-11T21:43:06.310Z,101834.53
2023-08-11T21:48:09.565Z,101841.41
2023-08-11T21:53:22.531Z,101834.53
2023-08-11T21:58:25.935Z,101850.53
2023-08-11T22:03:28.043Z,101844.81
2023-08-11T22:08:30.304Z,101846.34
2023-08-11T22:13:32.570Z,101854.97
2023-08-11T22:18:34.611Z,101846.03
2023-08-11T22:23:36.687Z,101847.66
2023-08-11T22:28:40.380Z,101848.81
2023-08-11T22:33:42.778Z,101835.53
2023-08-11T22:38:45.066Z,101830.88
2023-08-11T22:43:47.145Z,101828.66
2023-08-11T22:48:54.474Z,101827.97
2023-08-11T22:53:56.608Z,101828.66
2023-08-11T22:58:58.899Z,101821.56
2023-08-11T23:04:04.459Z,101822.97
2023-08-11T23:09:09.287Z,101823.53
2023-08-11T23:14:18.613Z,101815.03
2023-08-11T23:19:29.623Z,101808.28
2023-08-11T23:24:34.829Z,101810.00
2023-08-11T23:31:24.026Z,101797.06
2023-08-11T23:36:39.539Z,101796.31
2023-08-11T23:42:21.745Z,101791.56
